Marcel — ONDP — position and weather

sailwx.info

Track history (hours):
 
Tides and Currents Weather Stations Pressure Air Temp Water Temp Dewpoint Dewpoint Depression Visibility Wind Speed Wind Dir Waves Ship Positions

Marcel

Last reported at 2015-Jul-05 02:20 UTC. Time now 2015-Jul-07 06:47 UTC.
Position N 35°53' W 009°10'.

Length 88 m; draft 4.9 m.

Type: Cargo ship. MMSI: 205439000.

Date/timePositionNaut miles runAvg speedWind from/ knotsBaromVisibWave heightAir tempDewpointWater temp
2015-Jul-05 02:20N 35°53' W 009°10'7 9.1
2015-Jul-05 01:33N 35°59' W 009°15'9 9.1
2015-Jul-05 00:32N 36°06' W 009°21'28 9.2
2015-Jul-04 21:28N 36°30' W 009°40'8 8.9
2015-Jul-04 20:32N 36°38' W 009°45'10 9.2
2015-Jul-04 19:30N 36°47' W 009°45'11 9.2
2015-Jul-04 18:18N 36°58' W 009°44'25 9.1
2015-Jul-04 15:33N 37°23' W 009°49'50 9.4
2015-Jul-04 10:10N 38°12' W 010°03'6 9.2
2015-Jul-04 09:33N 38°18' W 010°05'9 8.8
2015-Jul-04 08:32N 38°26' W 010°07'  
2015-Jul-02 03:24N 43°47' W 006°11'9 8.3
2015-Jul-02 02:21N 43°46' W 005°59'7 9.0
2015-Jul-02 01:33N 43°46' W 005°49'18 8.8
2015-Jul-01 23:31N 43°43' W 005°25'73 2.6
2015-Jun-30 19:14N 43°29' W 003°46'  
Track history (hours):
 
Tides and Currents Weather Stations Pressure Air Temp Water Temp Dewpoint Dewpoint Depression Visibility Wind Speed Wind Dir Waves Ship Positions

Marcel

Last reported at 2015-Jul-05 02:20 UTC. Time now 2015-Jul-07 06:47 UTC.
Position N 35°53' W 009°10'.

Length 88 m; draft 4.9 m.

Type: Cargo ship. MMSI: 205439000.

Date/timePositionNaut miles runAvg speedWind from/ knotsBaromVisibWave heightAir tempDewpointWater temp
2015-Jul-05 02:20N 35°53' W 009°10'7 9.1
2015-Jul-05 01:33N 35°59' W 009°15'9 9.1
2015-Jul-05 00:32N 36°06' W 009°21'28 9.2
2015-Jul-04 21:28N 36°30' W 009°40'8 8.9
2015-Jul-04 20:32N 36°38' W 009°45'10 9.2
2015-Jul-04 19:30N 36°47' W 009°45'11 9.2
2015-Jul-04 18:18N 36°58' W 009°44'25 9.1
2015-Jul-04 15:33N 37°23' W 009°49'50 9.4
2015-Jul-04 10:10N 38°12' W 010°03'6 9.2
2015-Jul-04 09:33N 38°18' W 010°05'9 8.8
2015-Jul-04 08:32N 38°26' W 010°07'  
2015-Jul-02 03:24N 43°47' W 006°11'9 8.3
2015-Jul-02 02:21N 43°46' W 005°59'7 9.0
2015-Jul-02 01:33N 43°46' W 005°49'18 8.8
2015-Jul-01 23:31N 43°43' W 005°25'73 2.6
2015-Jun-30 19:14N 43°29' W 003°46'  

Dump ship's entire track history